sensor_id;sensor_type;location;lat;lon;timestamp;P1;durP1;ratioP1;P2;durP2;ratioP2
17917;SDS011;9084;50.956;3.106;2022-08-06T00:02:09;1.77;;;1.42;;
17917;SDS011;9084;50.956;3.106;2022-08-06T00:04:40;2.72;;;1.20;;
17917;SDS011;9084;50.956;3.106;2022-08-06T00:07:05;3.00;;;1.42;;
17917;SDS011;9084;50.956;3.106;2022-08-06T00:09:31;1.95;;;1.15;;
17917;SDS011;9084;50.956;3.106;2022-08-06T00:12:00;2.85;;;1.25;;
17917;SDS011;9084;50.956;3.106;2022-08-06T00:14:26;1.88;;;1.08;;
17917;SDS011;9084;50.956;3.106;2022-08-06T00:16:53;1.70;;;1.08;;
17917;SDS011;9084;50.956;3.106;2022-08-06T00:19:19;2.58;;;1.20;;
17917;SDS011;9084;50.956;3.106;2022-08-06T00:21:46;1.48;;;1.10;;
17917;SDS011;9084;50.956;3.106;2022-08-06T00:24:14;4.93;;;1.30;;
17917;SDS011;9084;50.956;3.106;2022-08-06T00:26:43;2.60;;;1.17;;
17917;SDS011;9084;50.956;3.106;2022-08-06T00:29:11;3.63;;;1.27;;
17917;SDS011;9084;50.956;3.106;2022-08-06T00:31:37;1.45;;;1.13;;
17917;SDS011;9084;50.956;3.106;2022-08-06T00:34:02;1.83;;;1.42;;
17917;SDS011;9084;50.956;3.106;2022-08-06T00:36:29;3.97;;;1.45;;
17917;SDS011;9084;50.956;3.106;2022-08-06T00:38:57;4.80;;;1.50;;
17917;SDS011;9084;50.956;3.106;2022-08-06T00:41:24;3.13;;;1.52;;
17917;SDS011;9084;50.956;3.106;2022-08-06T00:43:50;2.70;;;1.35;;
17917;SDS011;9084;50.956;3.106;2022-08-06T00:46:19;2.50;;;1.10;;
17917;SDS011;9084;50.956;3.106;2022-08-06T00:48:45;2.15;;;1.15;;
17917;SDS011;9084;50.956;3.106;2022-08-06T00:51:13;2.90;;;1.30;;
17917;SDS011;9084;50.956;3.106;2022-08-06T00:53:42;2.97;;;1.02;;
17917;SDS011;9084;50.956;3.106;2022-08-06T00:56:08;4.43;;;1.50;;
17917;SDS011;9084;50.956;3.106;2022-08-06T00:58:34;2.17;;;1.15;;
17917;SDS011;9084;50.956;3.106;2022-08-06T01:01:03;3.70;;;1.58;;
17917;SDS011;9084;50.956;3.106;2022-08-06T01:03:29;4.35;;;1.35;;
17917;SDS011;9084;50.956;3.106;2022-08-06T01:05:55;1.98;;;1.10;;
17917;SDS011;9084;50.956;3.106;2022-08-06T01:08:23;2.35;;;1.52;;
17917;SDS011;9084;50.956;3.106;2022-08-06T01:10:50;1.90;;;1.13;;
17917;SDS011;9084;50.956;3.106;2022-08-06T01:13:18;4.45;;;1.80;;
17917;SDS011;9084;50.956;3.106;2022-08-06T01:15:45;4.18;;;1.80;;
17917;SDS011;9084;50.956;3.106;2022-08-06T01:18:35;3.70;;;1.63;;
17917;SDS011;9084;50.956;3.106;2022-08-06T01:21:30;4.38;;;1.50;;
17917;SDS011;9084;50.956;3.106;2022-08-06T01:27:01;2.25;;;1.50;;
17917;SDS011;9084;50.956;3.106;2022-08-06T01:29:51;3.13;;;1.40;;
17917;SDS011;9084;50.956;3.106;2022-08-06T01:32:25;1.92;;;1.33;;
17917;SDS011;9084;50.956;3.106;2022-08-06T01:34:57;3.85;;;1.50;;
17917;SDS011;9084;50.956;3.106;2022-08-06T01:37:30;2.88;;;1.75;;
17917;SDS011;9084;50.956;3.106;2022-08-06T01:40:02;3.50;;;1.55;;
17917;SDS011;9084;50.956;3.106;2022-08-06T01:42:33;3.58;;;1.83;;
17917;SDS011;9084;50.956;3.106;2022-08-06T01:44:59;3.22;;;1.73;;
17917;SDS011;9084;50.956;3.106;2022-08-06T01:47:27;5.07;;;1.80;;
17917;SDS011;9084;50.956;3.106;2022-08-06T01:49:56;3.38;;;1.33;;
17917;SDS011;9084;50.956;3.106;2022-08-06T01:52:27;4.80;;;2.08;;
17917;SDS011;9084;50.956;3.106;2022-08-06T01:54:59;2.05;;;1.20;;
17917;SDS011;9084;50.956;3.106;2022-08-06T01:57:26;3.90;;;1.63;;
17917;SDS011;9084;50.956;3.106;2022-08-06T01:59:56;3.13;;;1.60;;
17917;SDS011;9084;50.956;3.106;2022-08-06T02:02:24;4.07;;;2.08;;
17917;SDS011;9084;50.956;3.106;2022-08-06T02:04:58;3.25;;;1.63;;
17917;SDS011;9084;50.956;3.106;2022-08-06T02:07:26;4.43;;;1.85;;
17917;SDS011;9084;50.956;3.106;2022-08-06T02:09:56;2.15;;;1.77;;
17917;SDS011;9084;50.956;3.106;2022-08-06T02:12:25;3.70;;;1.73;;
17917;SDS011;9084;50.956;3.106;2022-08-06T02:14:54;4.70;;;2.28;;
17917;SDS011;9084;50.956;3.106;2022-08-06T02:17:29;4.65;;;2.13;;
17917;SDS011;9084;50.956;3.106;2022-08-06T02:20:02;5.50;;;2.30;;
17917;SDS011;9084;50.956;3.106;2022-08-06T02:22:30;2.67;;;1.90;;
17917;SDS011;9084;50.956;3.106;2022-08-06T02:25:03;3.05;;;1.77;;
17917;SDS011;9084;50.956;3.106;2022-08-06T02:27:33;3.40;;;2.28;;
17917;SDS011;9084;50.956;3.106;2022-08-06T02:30:04;5.30;;;2.30;;
17917;SDS011;9084;50.956;3.106;2022-08-06T02:32:30;4.18;;;1.90;;
17917;SDS011;9084;50.956;3.106;2022-08-06T02:34:56;4.03;;;2.53;;
17917;SDS011;9084;50.956;3.106;2022-08-06T02:37:23;4.35;;;2.30;;
17917;SDS011;9084;50.956;3.106;2022-08-06T02:39:57;3.60;;;2.00;;
17917;SDS011;9084;50.956;3.106;2022-08-06T02:45:45;4.38;;;2.15;;
17917;SDS011;9084;50.956;3.106;2022-08-06T02:48:33;5.45;;;2.13;;
17917;SDS011;9084;50.956;3.106;2022-08-06T02:51:10;4.38;;;2.10;;
17917;SDS011;9084;50.956;3.106;2022-08-06T02:53:43;5.40;;;2.00;;
17917;SDS011;9084;50.956;3.106;2022-08-06T02:56:44;4.07;;;2.00;;
17917;SDS011;9084;50.956;3.106;2022-08-06T02:59:13;2.95;;;2.13;;
17917;SDS011;9084;50.956;3.106;2022-08-06T03:01:48;3.88;;;2.33;;
17917;SDS011;9084;50.956;3.106;2022-08-06T03:04:20;4.50;;;2.20;;
17917;SDS011;9084;50.956;3.106;2022-08-06T03:06:48;5.57;;;2.38;;
17917;SDS011;9084;50.956;3.106;2022-08-06T03:09:15;3.72;;;2.25;;
17917;SDS011;9084;50.956;3.106;2022-08-06T03:11:42;3.05;;;1.80;;
17917;SDS011;9084;50.956;3.106;2022-08-06T03:14:11;3.10;;;2.10;;
17917;SDS011;9084;50.956;3.106;2022-08-06T03:16:39;3.10;;;2.25;;
17917;SDS011;9084;50.956;3.106;2022-08-06T03:19:06;4.22;;;2.40;;
17917;SDS011;9084;50.956;3.106;2022-08-06T03:21:35;4.63;;;1.90;;
17917;SDS011;9084;50.956;3.106;2022-08-06T03:24:04;5.15;;;2.35;;
17917;SDS011;9084;50.956;3.106;2022-08-06T03:26:35;2.72;;;1.98;;
17917;SDS011;9084;50.956;3.106;2022-08-06T03:29:02;4.03;;;2.20;;
17917;SDS011;9084;50.956;3.106;2022-08-06T03:31:31;4.13;;;2.45;;
17917;SDS011;9084;50.956;3.106;2022-08-06T03:33:57;3.33;;;2.40;;
17917;SDS011;9084;50.956;3.106;2022-08-06T03:36:25;4.63;;;2.15;;
17917;SDS011;9084;50.956;3.106;2022-08-06T03:38:56;4.55;;;2.30;;
17917;SDS011;9084;50.956;3.106;2022-08-06T03:41:28;5.10;;;2.55;;
17917;SDS011;9084;50.956;3.106;2022-08-06T03:43:57;3.97;;;2.08;;
17917;SDS011;9084;50.956;3.106;2022-08-06T03:46:29;5.72;;;2.50;;
17917;SDS011;9084;50.956;3.106;2022-08-06T03:49:21;3.58;;;2.53;;
17917;SDS011;9084;50.956;3.106;2022-08-06T03:51:53;3.30;;;2.20;;
17917;SDS011;9084;50.956;3.106;2022-08-06T03:54:24;8.35;;;2.70;;
17917;SDS011;9084;50.956;3.106;2022-08-06T03:56:52;6.22;;;2.72;;
17917;SDS011;9084;50.956;3.106;2022-08-06T03:59:26;4.85;;;2.53;;
17917;SDS011;9084;50.956;3.106;2022-08-06T04:01:55;5.22;;;2.20;;
17917;SDS011;9084;50.956;3.106;2022-08-06T04:04:22;4.65;;;2.60;;
17917;SDS011;9084;50.956;3.106;2022-08-06T04:06:50;4.65;;;2.60;;
17917;SDS011;9084;50.956;3.106;2022-08-06T04:09:18;4.30;;;2.63;;
17917;SDS011;9084;50.956;3.106;2022-08-06T04:11:45;7.78;;;2.40;;
17917;SDS011;9084;50.956;3.106;2022-08-06T04:14:12;19.27;;;3.88;;
17917;SDS011;9084;50.956;3.106;2022-08-06T04:16:38;6.75;;;2.83;;
17917;SDS011;9084;50.956;3.106;2022-08-06T04:19:05;7.22;;;2.80;;
17917;SDS011;9084;50.956;3.106;2022-08-06T04:21:33;7.35;;;3.15;;
17917;SDS011;9084;50.956;3.106;2022-08-06T04:24:02;4.80;;;2.47;;
17917;SDS011;9084;50.956;3.106;2022-08-06T04:26:28;8.18;;;3.00;;
17917;SDS011;9084;50.956;3.106;2022-08-06T04:28:56;7.38;;;2.88;;
17917;SDS011;9084;50.956;3.106;2022-08-06T04:31:23;8.45;;;3.15;;
17917;SDS011;9084;50.956;3.106;2022-08-06T04:33:54;4.28;;;2.67;;
17917;SDS011;9084;50.956;3.106;2022-08-06T04:36:21;5.60;;;2.58;;
17917;SDS011;9084;50.956;3.106;2022-08-06T04:38:48;6.20;;;2.70;;
17917;SDS011;9084;50.956;3.106;2022-08-06T04:41:14;3.45;;;2.70;;
17917;SDS011;9084;50.956;3.106;2022-08-06T04:43:40;5.13;;;3.30;;
17917;SDS011;9084;50.956;3.106;2022-08-06T04:46:07;5.93;;;2.97;;
17917;SDS011;9084;50.956;3.106;2022-08-06T04:48:33;5.80;;;2.83;;
17917;SDS011;9084;50.956;3.106;2022-08-06T04:51:04;5.07;;;2.60;;
17917;SDS011;9084;50.956;3.106;2022-08-06T04:53:40;6.00;;;3.35;;
17917;SDS011;9084;50.956;3.106;2022-08-06T04:56:07;6.13;;;3.17;;
17917;SDS011;9084;50.956;3.106;2022-08-06T04:58:34;5.57;;;2.80;;
17917;SDS011;9084;50.956;3.106;2022-08-06T05:01:00;6.45;;;2.72;;
17917;SDS011;9084;50.956;3.106;2022-08-06T05:03:29;6.97;;;2.80;;
17917;SDS011;9084;50.956;3.106;2022-08-06T05:09:06;7.93;;;2.42;;
17917;SDS011;9084;50.956;3.106;2022-08-06T05:11:40;5.55;;;2.63;;
17917;SDS011;9084;50.956;3.106;2022-08-06T05:14:09;6.88;;;2.90;;
17917;SDS011;9084;50.956;3.106;2022-08-06T05:16:42;5.72;;;2.97;;
17917;SDS011;9084;50.956;3.106;2022-08-06T05:19:11;4.88;;;3.15;;
17917;SDS011;9084;50.956;3.106;2022-08-06T05:21:49;6.55;;;3.10;;
17917;SDS011;9084;50.956;3.106;2022-08-06T05:24:17;7.57;;;3.38;;
17917;SDS011;9084;50.956;3.106;2022-08-06T05:26:43;5.40;;;2.88;;
17917;SDS011;9084;50.956;3.106;2022-08-06T05:29:09;6.00;;;3.28;;
17917;SDS011;9084;50.956;3.106;2022-08-06T05:31:36;3.95;;;2.97;;
17917;SDS011;9084;50.956;3.106;2022-08-06T05:34:04;4.45;;;2.60;;
17917;SDS011;9084;50.956;3.106;2022-08-06T05:36:35;4.53;;;3.00;;
17917;SDS011;9084;50.956;3.106;2022-08-06T05:39:04;3.85;;;3.15;;
17917;SDS011;9084;50.956;3.106;2022-08-06T05:41:29;5.18;;;3.30;;
17917;SDS011;9084;50.956;3.106;2022-08-06T05:43:56;6.32;;;3.47;;
17917;SDS011;9084;50.956;3.106;2022-08-06T05:46:26;7.57;;;2.67;;
17917;SDS011;9084;50.956;3.106;2022-08-06T05:51:27;6.30;;;3.28;;
17917;SDS011;9084;50.956;3.106;2022-08-06T05:54:00;7.70;;;2.95;;
17917;SDS011;9084;50.956;3.106;2022-08-06T05:56:35;4.65;;;2.85;;
17917;SDS011;9084;50.956;3.106;2022-08-06T05:59:26;4.10;;;2.55;;
17917;SDS011;9084;50.956;3.106;2022-08-06T06:01:59;4.97;;;2.60;;
17917;SDS011;9084;50.956;3.106;2022-08-06T06:04:26;4.60;;;2.85;;
17917;SDS011;9084;50.956;3.106;2022-08-06T06:06:51;4.28;;;2.90;;
17917;SDS011;9084;50.956;3.106;2022-08-06T06:09:18;5.07;;;2.95;;
17917;SDS011;9084;50.956;3.106;2022-08-06T06:11:46;3.47;;;3.17;;
17917;SDS011;9084;50.956;3.106;2022-08-06T06:17:16;3.55;;;2.40;;
17917;SDS011;9084;50.956;3.106;2022-08-06T06:20:04;2.78;;;2.15;;
17917;SDS011;9084;50.956;3.106;2022-08-06T06:22:57;4.97;;;2.40;;
17917;SDS011;9084;50.956;3.106;2022-08-06T06:25:31;5.55;;;2.85;;
17917;SDS011;9084;50.956;3.106;2022-08-06T06:33:47;4.47;;;2.08;;
17917;SDS011;9084;50.956;3.106;2022-08-06T06:36:34;2.40;;;1.77;;
17917;SDS011;9084;50.956;3.106;2022-08-06T06:47:45;4.15;;;2.42;;
17917;SDS011;9084;50.956;3.106;2022-08-06T06:50:22;4.38;;;1.90;;
17917;SDS011;9084;50.956;3.106;2022-08-06T06:52:53;4.15;;;2.00;;
17917;SDS011;9084;50.956;3.106;2022-08-06T07:00:29;2.30;;;1.65;;
17917;SDS011;9084;50.956;3.106;2022-08-06T07:02:57;2.85;;;1.45;;
17917;SDS011;9084;50.956;3.106;2022-08-06T07:05:26;3.85;;;1.70;;
17917;SDS011;9084;50.956;3.106;2022-08-06T07:07:54;3.45;;;1.08;;
17917;SDS011;9084;50.956;3.106;2022-08-06T07:10:23;2.60;;;1.20;;
17917;SDS011;9084;50.956;3.106;2022-08-06T07:12:53;2.75;;;1.20;;
17917;SDS011;9084;50.956;3.106;2022-08-06T07:15:22;2.95;;;0.80;;
17917;SDS011;9084;50.956;3.106;2022-08-06T07:17:49;2.15;;;0.90;;
17917;SDS011;9084;50.956;3.106;2022-08-06T07:20:18;4.00;;;1.08;;
17917;SDS011;9084;50.956;3.106;2022-08-06T07:22:49;2.10;;;0.80;;
17917;SDS011;9084;50.956;3.106;2022-08-06T07:25:22;1.75;;;0.90;;
17917;SDS011;9084;50.956;3.106;2022-08-06T07:27:50;1.98;;;0.90;;
17917;SDS011;9084;50.956;3.106;2022-08-06T07:30:19;2.05;;;0.98;;
17917;SDS011;9084;50.956;3.106;2022-08-06T07:32:46;3.03;;;0.93;;
17917;SDS011;9084;50.956;3.106;2022-08-06T07:35:17;1.27;;;0.70;;
17917;SDS011;9084;50.956;3.106;2022-08-06T07:38:03;1.95;;;0.85;;
17917;SDS011;9084;50.956;3.106;2022-08-06T07:40:32;1.45;;;0.65;;
17917;SDS011;9084;50.956;3.106;2022-08-06T07:43:17;1.80;;;0.98;;
17917;SDS011;9084;50.956;3.106;2022-08-06T07:45:49;1.75;;;1.08;;
17917;SDS011;9084;50.956;3.106;2022-08-06T07:48:18;2.22;;;0.63;;
17917;SDS011;9084;50.956;3.106;2022-08-06T07:50:56;0.98;;;0.63;;
17917;SDS011;9084;50.956;3.106;2022-08-06T07:53:23;1.33;;;0.80;;
17917;SDS011;9084;50.956;3.106;2022-08-06T07:55:50;3.60;;;0.88;;
17917;SDS011;9084;50.956;3.106;2022-08-06T07:58:16;2.38;;;0.70;;
17917;SDS011;9084;50.956;3.106;2022-08-06T08:00:43;2.70;;;0.98;;
17917;SDS011;9084;50.956;3.106;2022-08-06T08:03:09;4.30;;;0.93;;
17917;SDS011;9084;50.956;3.106;2022-08-06T08:05:54;2.00;;;0.98;;
17917;SDS011;9084;50.956;3.106;2022-08-06T08:08:39;2.92;;;1.05;;
17917;SDS011;9084;50.956;3.106;2022-08-06T08:11:07;1.85;;;0.85;;
17917;SDS011;9084;50.956;3.106;2022-08-06T08:13:34;1.60;;;1.05;;
17917;SDS011;9084;50.956;3.106;2022-08-06T08:16:01;2.60;;;1.00;;
17917;SDS011;9084;50.956;3.106;2022-08-06T08:18:30;2.88;;;1.10;;
17917;SDS011;9084;50.956;3.106;2022-08-06T08:21:01;2.40;;;1.33;;
17917;SDS011;9084;50.956;3.106;2022-08-06T08:23:28;4.85;;;1.30;;
17917;SDS011;9084;50.956;3.106;2022-08-06T08:26:01;1.40;;;1.08;;
17917;SDS011;9084;50.956;3.106;2022-08-06T08:28:28;3.05;;;1.40;;
17917;SDS011;9084;50.956;3.106;2022-08-06T08:30:57;2.90;;;0.70;;
17917;SDS011;9084;50.956;3.106;2022-08-06T08:33:26;2.80;;;1.30;;
17917;SDS011;9084;50.956;3.106;2022-08-06T08:35:52;3.42;;;0.82;;
17917;SDS011;9084;50.956;3.106;2022-08-06T08:38:19;3.25;;;0.80;;
17917;SDS011;9084;50.956;3.106;2022-08-06T08:40:45;4.50;;;0.90;;
17917;SDS011;9084;50.956;3.106;2022-08-06T08:43:17;2.78;;;0.90;;
17917;SDS011;9084;50.956;3.106;2022-08-06T08:45:48;3.63;;;1.20;;
17917;SDS011;9084;50.956;3.106;2022-08-06T08:48:16;1.25;;;0.90;;
17917;SDS011;9084;50.956;3.106;2022-08-06T08:50:45;4.80;;;1.08;;
17917;SDS011;9084;50.956;3.106;2022-08-06T08:53:20;3.30;;;1.02;;
17917;SDS011;9084;50.956;3.106;2022-08-06T08:55:50;3.13;;;0.95;;
17917;SDS011;9084;50.956;3.106;2022-08-06T08:58:17;1.65;;;0.75;;
17917;SDS011;9084;50.956;3.106;2022-08-06T09:00:44;1.70;;;0.88;;
17917;SDS011;9084;50.956;3.106;2022-08-06T09:03:10;2.72;;;1.00;;
17917;SDS011;9084;50.956;3.106;2022-08-06T09:05:36;7.22;;;0.95;;
17917;SDS011;9084;50.956;3.106;2022-08-06T09:08:02;2.20;;;1.08;;
17917;SDS011;9084;50.956;3.106;2022-08-06T09:10:29;1.70;;;1.00;;
17917;SDS011;9084;50.956;3.106;2022-08-06T09:12:55;2.63;;;0.90;;
17917;SDS011;9084;50.956;3.106;2022-08-06T09:15:21;1.55;;;0.82;;
17917;SDS011;9084;50.956;3.106;2022-08-06T09:17:47;1.88;;;1.00;;
17917;SDS011;9084;50.956;3.106;2022-08-06T09:20:14;1.05;;;0.77;;
17917;SDS011;9084;50.956;3.106;2022-08-06T09:22:40;2.63;;;0.90;;
17917;SDS011;9084;50.956;3.106;2022-08-06T09:25:33;1.95;;;0.85;;
17917;SDS011;9084;50.956;3.106;2022-08-06T09:28:37;2.03;;;0.90;;
17917;SDS011;9084;50.956;3.106;2022-08-06T09:33:40;2.53;;;0.80;;
17917;SDS011;9084;50.956;3.106;2022-08-06T09:36:11;4.05;;;1.17;;
17917;SDS011;9084;50.956;3.106;2022-08-06T09:38:51;1.70;;;1.27;;
17917;SDS011;9084;50.956;3.106;2022-08-06T09:41:22;2.28;;;1.02;;
17917;SDS011;9084;50.956;3.106;2022-08-06T09:43:54;4.32;;;0.98;;
17917;SDS011;9084;50.956;3.106;2022-08-06T09:49:16;2.35;;;1.05;;
17917;SDS011;9084;50.956;3.106;2022-08-06T09:51:43;2.13;;;0.80;;
17917;SDS011;9084;50.956;3.106;2022-08-06T09:54:10;1.63;;;0.98;;
17917;SDS011;9084;50.956;3.106;2022-08-06T09:56:55;1.10;;;0.65;;
17917;SDS011;9084;50.956;3.106;2022-08-06T09:59:22;1.58;;;0.80;;
17917;SDS011;9084;50.956;3.106;2022-08-06T10:02:14;1.58;;;0.88;;
17917;SDS011;9084;50.956;3.106;2022-08-06T10:05:06;1.67;;;0.73;;
17917;SDS011;9084;50.956;3.106;2022-08-06T10:10:53;4.13;;;1.10;;
17917;SDS011;9084;50.956;3.106;2022-08-06T10:13:38;1.58;;;0.95;;
17917;SDS011;9084;50.956;3.106;2022-08-06T10:16:14;2.78;;;0.80;;
17917;SDS011;9084;50.956;3.106;2022-08-06T10:19:05;2.10;;;1.17;;
17917;SDS011;9084;50.956;3.106;2022-08-06T10:22:05;1.10;;;0.68;;
17917;SDS011;9084;50.956;3.106;2022-08-06T10:24:52;1.95;;;0.82;;
17917;SDS011;9084;50.956;3.106;2022-08-06T10:27:39;2.15;;;0.80;;
17917;SDS011;9084;50.956;3.106;2022-08-06T10:30:07;1.92;;;0.80;;
17917;SDS011;9084;50.956;3.106;2022-08-06T10:32:46;1.70;;;0.75;;
17917;SDS011;9084;50.956;3.106;2022-08-06T10:35:19;1.38;;;0.80;;
17917;SDS011;9084;50.956;3.106;2022-08-06T10:38:06;2.70;;;0.98;;
17917;SDS011;9084;50.956;3.106;2022-08-06T10:40:37;2.78;;;0.93;;
17917;SDS011;9084;50.956;3.106;2022-08-06T10:43:24;1.70;;;0.70;;
17917;SDS011;9084;50.956;3.106;2022-08-06T10:46:12;1.55;;;0.80;;
17917;SDS011;9084;50.956;3.106;2022-08-06T10:48:40;2.20;;;1.13;;
17917;SDS011;9084;50.956;3.106;2022-08-06T10:51:27;2.13;;;1.10;;
17917;SDS011;9084;50.956;3.106;2022-08-06T10:54:14;1.77;;;0.80;;
17917;SDS011;9084;50.956;3.106;2022-08-06T10:57:00;0.95;;;0.80;;
17917;SDS011;9084;50.956;3.106;2022-08-06T10:59:48;2.90;;;1.00;;
17917;SDS011;9084;50.956;3.106;2022-08-06T11:02:40;4.03;;;1.30;;
17917;SDS011;9084;50.956;3.106;2022-08-06T11:05:28;1.05;;;0.70;;
17917;SDS011;9084;50.956;3.106;2022-08-06T11:14:42;3.63;;;0.95;;
17917;SDS011;9084;50.956;3.106;2022-08-06T11:17:49;2.17;;;0.80;;
17917;SDS011;9084;50.956;3.106;2022-08-06T11:26:00;3.95;;;1.20;;
17917;SDS011;9084;50.956;3.106;2022-08-06T11:30:58;2.45;;;0.90;;
17917;SDS011;9084;50.956;3.106;2022-08-06T11:41:21;1.98;;;0.80;;
17917;SDS011;9084;50.956;3.106;2022-08-06T11:59:25;1.02;;;0.70;;
17917;SDS011;9084;50.956;3.106;2022-08-06T12:01:55;2.03;;;1.17;;
17917;SDS011;9084;50.956;3.106;2022-08-06T12:10:08;1.40;;;0.68;;
17917;SDS011;9084;50.956;3.106;2022-08-06T12:12:44;2.47;;;0.98;;
17917;SDS011;9084;50.956;3.106;2022-08-06T12:17:37;2.78;;;1.10;;
17917;SDS011;9084;50.956;3.106;2022-08-06T12:23:19;1.70;;;0.82;;
17917;SDS011;9084;50.956;3.106;2022-08-06T12:25:48;1.15;;;0.60;;
17917;SDS011;9084;50.956;3.106;2022-08-06T12:28:15;2.22;;;0.82;;
17917;SDS011;9084;50.956;3.106;2022-08-06T12:30:49;2.75;;;0.88;;
17917;SDS011;9084;50.956;3.106;2022-08-06T12:33:21;1.10;;;0.70;;
17917;SDS011;9084;50.956;3.106;2022-08-06T12:35:48;1.38;;;0.90;;
17917;SDS011;9084;50.956;3.106;2022-08-06T12:38:20;1.65;;;0.80;;
17917;SDS011;9084;50.956;3.106;2022-08-06T12:41:08;4.25;;;0.80;;
17917;SDS011;9084;50.956;3.106;2022-08-06T12:43:34;1.40;;;0.80;;
17917;SDS011;9084;50.956;3.106;2022-08-06T12:46:03;3.70;;;0.85;;
17917;SDS011;9084;50.956;3.106;2022-08-06T12:48:33;3.05;;;0.90;;
17917;SDS011;9084;50.956;3.106;2022-08-06T12:51:06;2.65;;;0.82;;
17917;SDS011;9084;50.956;3.106;2022-08-06T12:56:16;5.50;;;1.02;;
17917;SDS011;9084;50.956;3.106;2022-08-06T12:58:43;1.92;;;0.70;;
17917;SDS011;9084;50.956;3.106;2022-08-06T13:01:11;3.28;;;0.90;;
17917;SDS011;9084;50.956;3.106;2022-08-06T13:03:43;5.03;;;0.98;;
17917;SDS011;9084;50.956;3.106;2022-08-06T13:06:13;2.45;;;1.10;;
17917;SDS011;9084;50.956;3.106;2022-08-06T13:08:41;4.15;;;0.90;;
17917;SDS011;9084;50.956;3.106;2022-08-06T13:11:11;1.35;;;0.90;;
17917;SDS011;9084;50.956;3.106;2022-08-06T13:13:40;2.00;;;0.70;;
17917;SDS011;9084;50.956;3.106;2022-08-06T13:16:11;3.38;;;1.23;;
17917;SDS011;9084;50.956;3.106;2022-08-06T13:18:38;2.55;;;0.75;;
17917;SDS011;9084;50.956;3.106;2022-08-06T13:21:15;1.50;;;0.90;;
17917;SDS011;9084;50.956;3.106;2022-08-06T13:23:46;1.23;;;0.80;;
17917;SDS011;9084;50.956;3.106;2022-08-06T13:26:14;2.53;;;0.80;;
17917;SDS011;9084;50.956;3.106;2022-08-06T13:28:52;2.35;;;1.00;;
17917;SDS011;9084;50.956;3.106;2022-08-06T13:31:44;2.72;;;1.00;;
17917;SDS011;9084;50.956;3.106;2022-08-06T13:34:12;1.33;;;0.88;;
17917;SDS011;9084;50.956;3.106;2022-08-06T13:36:41;3.42;;;0.90;;
17917;SDS011;9084;50.956;3.106;2022-08-06T13:39:27;2.33;;;1.10;;
17917;SDS011;9084;50.956;3.106;2022-08-06T13:42:14;1.17;;;0.73;;
17917;SDS011;9084;50.956;3.106;2022-08-06T13:44:44;1.70;;;0.73;;
17917;SDS011;9084;50.956;3.106;2022-08-06T13:47:11;2.92;;;0.93;;
17917;SDS011;9084;50.956;3.106;2022-08-06T13:49:43;3.90;;;0.90;;
17917;SDS011;9084;50.956;3.106;2022-08-06T13:52:10;1.65;;;0.70;;
17917;SDS011;9084;50.956;3.106;2022-08-06T13:54:39;3.63;;;0.95;;
17917;SDS011;9084;50.956;3.106;2022-08-06T13:57:09;4.07;;;1.10;;
17917;SDS011;9084;50.956;3.106;2022-08-06T13:59:36;1.42;;;0.77;;
17917;SDS011;9084;50.956;3.106;2022-08-06T14:02:06;2.70;;;0.75;;
17917;SDS011;9084;50.956;3.106;2022-08-06T14:04:32;2.92;;;0.90;;
17917;SDS011;9084;50.956;3.106;2022-08-06T14:07:00;1.17;;;0.75;;
17917;SDS011;9084;50.956;3.106;2022-08-06T14:09:29;2.75;;;0.70;;
17917;SDS011;9084;50.956;3.106;2022-08-06T14:11:58;1.90;;;0.60;;
17917;SDS011;9084;50.956;3.106;2022-08-06T14:14:28;1.88;;;0.80;;
17917;SDS011;9084;50.956;3.106;2022-08-06T14:16:55;2.65;;;0.88;;
17917;SDS011;9084;50.956;3.106;2022-08-06T14:19:22;3.75;;;1.25;;
17917;SDS011;9084;50.956;3.106;2022-08-06T14:21:52;3.03;;;1.02;;
17917;SDS011;9084;50.956;3.106;2022-08-06T14:24:17;1.50;;;1.00;;
17917;SDS011;9084;50.956;3.106;2022-08-06T14:26:43;2.47;;;1.10;;
17917;SDS011;9084;50.956;3.106;2022-08-06T14:29:09;3.78;;;1.05;;
17917;SDS011;9084;50.956;3.106;2022-08-06T14:31:35;1.85;;;0.93;;
17917;SDS011;9084;50.956;3.106;2022-08-06T14:34:01;1.10;;;0.98;;
17917;SDS011;9084;50.956;3.106;2022-08-06T14:36:28;2.03;;;1.05;;
17917;SDS011;9084;50.956;3.106;2022-08-06T14:38:56;3.05;;;0.90;;
17917;SDS011;9084;50.956;3.106;2022-08-06T14:41:24;1.38;;;0.77;;
17917;SDS011;9084;50.956;3.106;2022-08-06T14:44:09;2.97;;;0.90;;
17917;SDS011;9084;50.956;3.106;2022-08-06T14:46:53;2.58;;;0.98;;
17917;SDS011;9084;50.956;3.106;2022-08-06T14:49:19;1.23;;;0.90;;
17917;SDS011;9084;50.956;3.106;2022-08-06T14:51:45;2.80;;;0.90;;
17917;SDS011;9084;50.956;3.106;2022-08-06T14:54:11;1.77;;;0.82;;
17917;SDS011;9084;50.956;3.106;2022-08-06T14:56:37;2.17;;;0.90;;
17917;SDS011;9084;50.956;3.106;2022-08-06T14:59:03;1.80;;;0.80;;
17917;SDS011;9084;50.956;3.106;2022-08-06T15:01:32;3.85;;;0.82;;
17917;SDS011;9084;50.956;3.106;2022-08-06T15:04:00;1.70;;;0.98;;
17917;SDS011;9084;50.956;3.106;2022-08-06T15:06:27;2.38;;;1.20;;
17917;SDS011;9084;50.956;3.106;2022-08-06T15:08:53;2.47;;;0.88;;
17917;SDS011;9084;50.956;3.106;2022-08-06T15:11:19;1.13;;;0.90;;
17917;SDS011;9084;50.956;3.106;2022-08-06T15:13:45;2.45;;;0.85;;
17917;SDS011;9084;50.956;3.106;2022-08-06T15:16:11;2.60;;;1.10;;
17917;SDS011;9084;50.956;3.106;2022-08-06T15:18:37;1.27;;;1.00;;
17917;SDS011;9084;50.956;3.106;2022-08-06T15:21:02;1.25;;;0.80;;
17917;SDS011;9084;50.956;3.106;2022-08-06T15:23:30;1.20;;;0.70;;
17917;SDS011;9084;50.956;3.106;2022-08-06T15:25:56;2.45;;;0.90;;
17917;SDS011;9084;50.956;3.106;2022-08-06T15:28:21;3.33;;;1.05;;
17917;SDS011;9084;50.956;3.106;2022-08-06T15:30:52;1.38;;;0.90;;
17917;SDS011;9084;50.956;3.106;2022-08-06T15:33:17;4.00;;;1.20;;
17917;SDS011;9084;50.956;3.106;2022-08-06T15:35:45;3.05;;;1.08;;
17917;SDS011;9084;50.956;3.106;2022-08-06T15:38:13;2.60;;;0.98;;
17917;SDS011;9084;50.956;3.106;2022-08-06T15:40:44;2.13;;;0.90;;
17917;SDS011;9084;50.956;3.106;2022-08-06T15:43:12;0.80;;;0.80;;
17917;SDS011;9084;50.956;3.106;2022-08-06T15:45:39;3.03;;;0.80;;
17917;SDS011;9084;50.956;3.106;2022-08-06T15:48:07;2.13;;;0.70;;
17917;SDS011;9084;50.956;3.106;2022-08-06T15:50:33;1.30;;;0.68;;
17917;SDS011;9084;50.956;3.106;2022-08-06T15:53:00;1.73;;;0.70;;
17917;SDS011;9084;50.956;3.106;2022-08-06T15:55:25;2.35;;;0.70;;
17917;SDS011;9084;50.956;3.106;2022-08-06T15:57:54;1.77;;;0.82;;
17917;SDS011;9084;50.956;3.106;2022-08-06T16:00:19;3.95;;;0.80;;
17917;SDS011;9084;50.956;3.106;2022-08-06T16:02:45;2.85;;;0.93;;
17917;SDS011;9084;50.956;3.106;2022-08-06T16:05:11;2.78;;;1.00;;
17917;SDS011;9084;50.956;3.106;2022-08-06T16:07:37;2.75;;;1.10;;
17917;SDS011;9084;50.956;3.106;2022-08-06T16:10:03;4.70;;;0.93;;
17917;SDS011;9084;50.956;3.106;2022-08-06T16:12:32;3.33;;;1.00;;
17917;SDS011;9084;50.956;3.106;2022-08-06T16:14:59;4.32;;;0.70;;
17917;SDS011;9084;50.956;3.106;2022-08-06T16:17:30;2.88;;;0.80;;
17917;SDS011;9084;50.956;3.106;2022-08-06T16:20:00;2.25;;;0.65;;
17917;SDS011;9084;50.956;3.106;2022-08-06T16:22:27;1.45;;;0.80;;
17917;SDS011;9084;50.956;3.106;2022-08-06T16:24:55;1.48;;;0.77;;
17917;SDS011;9084;50.956;3.106;2022-08-06T16:27:21;2.30;;;0.98;;
17917;SDS011;9084;50.956;3.106;2022-08-06T16:29:51;1.77;;;0.80;;
17917;SDS011;9084;50.956;3.106;2022-08-06T16:32:20;1.42;;;0.93;;
17917;SDS011;9084;50.956;3.106;2022-08-06T16:34:46;1.95;;;0.88;;
17917;SDS011;9084;50.956;3.106;2022-08-06T16:37:12;1.38;;;1.00;;
17917;SDS011;9084;50.956;3.106;2022-08-06T16:39:38;2.00;;;1.02;;
17917;SDS011;9084;50.956;3.106;2022-08-06T16:42:05;0.88;;;0.77;;
17917;SDS011;9084;50.956;3.106;2022-08-06T16:44:34;2.08;;;0.70;;
17917;SDS011;9084;50.956;3.106;2022-08-06T16:47:03;4.22;;;1.17;;
17917;SDS011;9084;50.956;3.106;2022-08-06T16:49:30;2.38;;;0.90;;
17917;SDS011;9084;50.956;3.106;2022-08-06T16:51:56;1.58;;;1.15;;
17917;SDS011;9084;50.956;3.106;2022-08-06T16:54:24;1.15;;;0.90;;
17917;SDS011;9084;50.956;3.106;2022-08-06T16:56:50;1.92;;;0.70;;
17917;SDS011;9084;50.956;3.106;2022-08-06T16:59:16;1.90;;;1.00;;